Time,TemperatureF,DewpointF,PressureIn,WindDirection,WindDirectionDegrees,WindSpeedMPH,WindSpeedGustMPH,Humidity,HourlyPrecipIn,Conditions,Clouds,dailyrainin,SoftwareType,DateUTC
2013-01-21 00:09:00,60.3,58.0,30.07,NE,53,1.0,2.0,91,0.00,,,0.00,weatherlink.com 1.10,2013-01-21 05:09:00,
2013-01-21 00:24:00,60.4,58.0,30.08,NE,53,0.0,2.0,90,0.00,,,0.00,weatherlink.com 1.10,2013-01-21 05:24:00,
2013-01-21 00:39:00,60.6,57.0,30.07,NE,53,0.0,2.0,89,0.00,,,0.00,weatherlink.com 1.10,2013-01-21 05:39:00,
2013-01-21 00:54:00,60.7,58.0,30.07,NE,53,0.0,1.0,89,0.00,,,0.00,weatherlink.com 1.10,2013-01-21 05:54:00,
2013-01-21 01:09:00,60.9,57.0,30.07,NE,53,0.0,2.0,88,0.00,,,0.00,weatherlink.com 1.10,2013-01-21 06:09:00,
2013-01-21 01:25:00,61.0,58.0,30.07,NE,53,0.0,0.0,88,0.00,,,0.00,weatherlink.com 1.10,2013-01-21 06:25:00,
2013-01-21 01:40:00,61.1,58.0,30.07,NE,53,0.0,2.0,88,0.00,,,0.00,weatherlink.com 1.10,2013-01-21 06:40:00,
2013-01-21 01:55:00,61.4,58.0,30.06,NE,51,1.0,3.0,87,0.00,,,0.00,weatherlink.com 1.10,2013-01-21 06:55:00,
2013-01-21 02:10:00,61.5,58.0,30.05,NE,51,0.0,3.0,87,0.00,,,0.00,weatherlink.com 1.10,2013-01-21 07:10:00,
2013-01-21 02:25:00,61.5,58.0,30.05,NE,51,3.0,3.0,87,0.00,,,0.00,weatherlink.com 1.10,2013-01-21 07:25:00,
2013-01-21 02:40:00,61.7,58.0,30.05,NE,51,0.0,3.0,86,0.00,,,0.00,weatherlink.com 1.10,2013-01-21 07:40:00,
2013-01-21 02:55:00,61.6,58.0,30.05,NE,51,0.0,1.0,87,0.00,,,0.00,weatherlink.com 1.10,2013-01-21 07:55:00,
2013-01-21 03:10:00,61.6,58.0,30.04,NE,51,0.0,0.0,87,0.00,,,0.00,weatherlink.com 1.10,2013-01-21 08:10:00,
2013-01-21 03:25:00,61.4,58.0,30.04,NE,51,0.0,0.0,87,0.00,,,0.00,weatherlink.com 1.10,2013-01-21 08:25:00,
2013-01-21 03:40:00,61.3,58.0,30.04,NE,51,0.0,0.0,88,0.00,,,0.00,weatherlink.com 1.10,2013-01-21 08:40:00,
2013-01-21 03:55:00,61.2,58.0,30.03,NE,51,0.0,0.0,88,0.00,,,0.00,weatherlink.com 1.10,2013-01-21 08:55:00,
2013-01-21 04:10:00,61.1,58.0,30.03,NE,51,0.0,0.0,89,0.00,,,0.00,weatherlink.com 1.10,2013-01-21 09:10:00,
2013-01-21 04:25:00,61.0,58.0,30.03,NE,51,0.0,0.0,89,0.00,,,0.00,weatherlink.com 1.10,2013-01-21 09:25:00,
2013-01-21 04:55:00,61.0,58.0,30.02,NE,51,0.0,0.0,90,0.00,,,0.00,weatherlink.com 1.10,2013-01-21 09:55:00,
2013-01-21 05:10:00,61.0,58.0,30.02,NE,51,0.0,0.0,90,0.00,,,0.00,weatherlink.com 1.10,2013-01-21 10:10:00,
2013-01-21 05:25:00,61.0,58.0,30.02,NE,51,0.0,0.0,91,0.00,,,0.00,weatherlink.com 1.10,2013-01-21 10:25:00,
2013-01-21 05:40:00,61.2,59.0,30.02,NE,51,0.0,0.0,91,0.00,,,0.00,weatherlink.com 1.10,2013-01-21 10:40:00,
2013-01-21 05:55:00,61.3,59.0,30.03,NE,51,0.0,0.0,91,0.00,,,0.00,weatherlink.com 1.10,2013-01-21 10:55:00,
2013-01-21 06:10:00,61.4,59.0,30.03,NE,51,0.0,0.0,91,0.00,,,0.00,weatherlink.com 1.10,2013-01-21 11:10:00,
2013-01-21 06:25:00,61.4,59.0,30.03,NE,51,0.0,0.0,91,0.00,,,0.00,weatherlink.com 1.10,2013-01-21 11:25:00,
2013-01-21 06:40:00,61.4,59.0,30.03,NE,51,0.0,0.0,92,0.00,,,0.00,weatherlink.com 1.10,2013-01-21 11:40:00,
2013-01-21 06:55:00,61.5,59.0,30.04,NE,51,0.0,0.0,92,0.00,,,0.00,weatherlink.com 1.10,2013-01-21 11:55:00,
2013-01-21 07:10:00,61.4,59.0,30.04,NE,51,0.0,0.0,92,0.00,,,0.00,weatherlink.com 1.10,2013-01-21 12:10:00,
2013-01-21 07:25:00,61.2,59.0,30.05,NE,51,0.0,0.0,92,0.00,,,0.00,weatherlink.com 1.10,2013-01-21 12:25:00,
2013-01-21 07:40:00,61.2,59.0,30.06,NE,51,0.0,0.0,92,0.00,,,0.00,weatherlink.com 1.10,2013-01-21 12:40:00,
2013-01-21 07:55:00,61.2,59.0,30.06,NE,51,0.0,0.0,93,0.00,,,0.00,weatherlink.com 1.10,2013-01-21 12:55:00,
2013-01-21 08:10:00,62.2,61.0,30.06,NE,51,0.0,0.0,94,0.00,,,0.00,weatherlink.com 1.10,2013-01-21 13:10:00,
2013-01-21 08:25:00,64.3,62.0,30.06,NE,41,0.0,4.0,92,0.00,,,0.00,weatherlink.com 1.10,2013-01-21 13:25:00,
2013-01-21 08:40:00,65.4,63.0,30.07,North,9,0.0,2.0,90,0.00,,,0.00,weatherlink.com 1.10,2013-01-21 13:40:00,
2013-01-21 08:55:00,67.2,64.0,30.07,NNE,24,3.0,4.0,88,0.00,,,0.00,weatherlink.com 1.10,2013-01-21 13:55:00,
2013-01-21 09:10:00,67.6,64.0,30.07,NNE,24,1.0,5.0,87,0.00,,,0.00,weatherlink.com 1.10,2013-01-21 14:10:00,
2013-01-21 09:25:00,67.9,64.0,30.07,NNE,30,4.0,5.0,87,0.00,,,0.00,weatherlink.com 1.10,2013-01-21 14:25:00,
2013-01-21 09:40:00,68.4,64.0,30.07,NNE,32,4.0,5.0,86,0.00,,,0.00,weatherlink.com 1.10,2013-01-21 14:40:00,
2013-01-21 09:55:00,68.6,64.0,30.08,NNE,24,3.0,6.0,85,0.00,,,0.00,weatherlink.com 1.10,2013-01-21 14:55:00,
2013-01-21 10:11:00,68.6,64.0,30.08,NNE,16,1.0,3.0,86,0.00,,,0.00,weatherlink.com 1.10,2013-01-21 15:11:00,
2013-01-21 10:26:00,68.6,64.0,30.09,NW,320,0.0,4.0,84,0.00,,,0.00,weatherlink.com 1.10,2013-01-21 15:26:00,
2013-01-21 10:41:00,68.6,64.0,30.09,NNW,336,0.0,3.0,85,0.00,,,0.00,weatherlink.com 1.10,2013-01-21 15:41:00,
2013-01-21 10:56:00,69.0,64.0,30.08,NW,313,1.0,3.0,84,0.00,,,0.00,weatherlink.com 1.10,2013-01-21 15:56:00,
2013-01-21 11:11:00,70.1,65.0,30.08,North,355,1.0,3.0,83,0.00,,,0.00,weatherlink.com 1.10,2013-01-21 16:11:00,
2013-01-21 11:26:00,70.7,65.0,30.07,NNE,13,0.0,4.0,83,0.00,,,0.00,weatherlink.com 1.10,2013-01-21 16:26:00,
2013-01-21 11:41:00,70.5,65.0,30.07,WNW,286,1.0,2.0,83,0.00,,,0.00,weatherlink.com 1.10,2013-01-21 16:41:00,
2013-01-21 11:56:00,70.9,66.0,30.06,NW,304,0.0,3.0,83,0.00,,,0.00,weatherlink.com 1.10,2013-01-21 16:56:00,
2013-01-21 12:11:00,70.7,65.0,30.05,WNW,296,2.0,3.0,83,0.00,,,0.00,weatherlink.com 1.10,2013-01-21 17:11:00,
2013-01-21 12:26:00,70.6,66.0,30.05,WNW,296,0.0,2.0,84,0.00,,,0.00,weatherlink.com 1.10,2013-01-21 17:26:00,
2013-01-21 12:41:00,70.3,65.0,30.05,WNW,296,0.0,2.0,84,0.00,,,0.00,weatherlink.com 1.10,2013-01-21 17:41:00,
2013-01-21 12:56:00,69.0,66.0,30.03,WNW,296,0.0,0.0,91,0.00,,,0.00,weatherlink.com 1.10,2013-01-21 17:56:00,
2013-01-21 13:11:00,68.4,66.0,30.03,SW,235,3.0,5.0,91,0.00,,,0.00,weatherlink.com 1.10,2013-01-21 18:11:00,
2013-01-21 13:26:00,65.9,64.0,30.02,SW,234,0.0,3.0,92,0.00,,,0.00,weatherlink.com 1.10,2013-01-21 18:26:00,
2013-01-21 13:41:00,66.4,65.0,30.01,SW,234,0.0,0.0,94,0.00,,,0.00,weatherlink.com 1.10,2013-01-21 18:41:00,
2013-01-21 13:56:00,67.1,65.0,30.00,SW,234,0.0,0.0,94,0.00,,,0.00,weatherlink.com 1.10,2013-01-21 18:56:00,
2013-01-21 14:11:00,68.2,67.0,30.00,SW,234,0.0,0.0,94,0.00,,,0.00,weatherlink.com 1.10,2013-01-21 19:11:00,
2013-01-21 14:26:00,68.4,67.0,30.00,SW,234,0.0,2.0,94,0.00,,,0.00,weatherlink.com 1.10,2013-01-21 19:26:00,
2013-01-21 14:41:00,68.7,67.0,30.00,SW,234,2.0,2.0,94,0.00,,,0.00,weatherlink.com 1.10,2013-01-21 19:41:00,
2013-01-21 14:56:00,68.8,67.0,30.00,SW,234,0.0,3.0,94,0.00,,,0.00,weatherlink.com 1.10,2013-01-21 19:56:00,
2013-01-21 15:11:00,69.3,67.0,30.00,SW,232,1.0,3.0,92,0.00,,,0.00,weatherlink.com 1.10,2013-01-21 20:11:00,
2013-01-21 15:26:00,69.9,67.0,29.99,SW,232,1.0,2.0,91,0.00,,,0.00,weatherlink.com 1.10,2013-01-21 20:26:00,
2013-01-21 15:41:00,70.3,67.0,29.99,SW,232,0.0,2.0,90,0.00,,,0.00,weatherlink.com 1.10,2013-01-21 20:41:00,
2013-01-21 15:56:00,70.8,67.0,30.00,SW,232,0.0,2.0,88,0.00,,,0.00,weatherlink.com 1.10,2013-01-21 20:56:00,
2013-01-21 16:11:00,70.9,67.0,29.99,SW,232,0.0,2.0,86,0.00,,,0.00,weatherlink.com 1.10,2013-01-21 21:11:00,
2013-01-21 16:26:00,69.6,65.0,30.00,WNW,303,0.0,5.0,86,0.00,,,0.00,weatherlink.com 1.10,2013-01-21 21:26:00,
2013-01-21 16:41:00,68.9,65.0,30.00,North,5,0.0,4.0,87,0.00,,,0.00,weatherlink.com 1.10,2013-01-21 21:41:00,
2013-01-21 16:56:00,68.6,65.0,30.00,NNE,22,1.0,3.0,87,0.00,,,0.00,weatherlink.com 1.10,2013-01-21 21:56:00,
2013-01-21 17:11:00,68.5,65.0,30.01,NNE,26,0.0,0.0,87,0.00,,,0.00,weatherlink.com 1.10,2013-01-21 22:11:00,
2013-01-21 17:26:00,68.3,65.0,30.01,NNE,26,0.0,1.0,88,0.00,,,0.00,weatherlink.com 1.10,2013-01-21 22:26:00,
2013-01-21 17:41:00,68.3,64.0,30.01,NNE,26,0.0,0.0,87,0.00,,,0.00,weatherlink.com 1.10,2013-01-21 22:41:00,
2013-01-21 17:56:00,68.0,64.0,30.01,NNE,26,0.0,1.0,88,0.00,,,0.00,weatherlink.com 1.10,2013-01-21 22:56:00,
2013-01-21 18:11:00,67.6,64.0,30.01,NNE,26,0.0,0.0,89,0.00,,,0.00,weatherlink.com 1.10,2013-01-21 23:11:00,
2013-01-21 18:26:00,67.2,64.0,30.01,NNE,26,0.0,0.0,89,0.00,,,0.00,weatherlink.com 1.10,2013-01-21 23:26:00,
2013-01-21 18:41:00,66.7,64.0,30.02,North,5,0.0,2.0,90,0.00,,,0.00,weatherlink.com 1.10,2013-01-21 23:41:00,
2013-01-21 18:56:00,66.1,63.0,30.02,NW,319,0.0,3.0,90,0.00,,,0.00,weatherlink.com 1.10,2013-01-21 23:56:00,
2013-01-21 19:11:00,65.5,63.0,30.02,NW,319,0.0,1.0,90,0.00,,,0.00,weatherlink.com 1.10,2013-01-22 00:11:00,
2013-01-21 19:26:00,64.9,62.0,30.02,NW,319,0.0,1.0,90,0.00,,,0.00,weatherlink.com 1.10,2013-01-22 00:26:00,
2013-01-21 19:41:00,64.4,62.0,30.02,NW,319,0.0,1.0,91,0.00,,,0.00,weatherlink.com 1.10,2013-01-22 00:41:00,
2013-01-21 19:56:00,63.9,61.0,30.03,NW,317,0.0,2.0,90,0.00,,,0.00,weatherlink.com 1.10,2013-01-22 00:56:00,
2013-01-21 20:11:00,63.5,60.0,30.02,WNW,300,0.0,2.0,88,0.00,,,0.00,weatherlink.com 1.10,2013-01-22 01:11:00,
2013-01-21 20:26:00,63.4,60.0,30.03,WNW,300,0.0,2.0,88,0.00,,,0.00,weatherlink.com 1.10,2013-01-22 01:26:00,
2013-01-21 20:41:00,63.1,60.0,30.03,WNW,300,0.0,1.0,88,0.00,,,0.00,weatherlink.com 1.10,2013-01-22 01:41:00,
2013-01-21 20:56:00,62.6,59.0,30.04,WNW,300,0.0,2.0,88,0.00,,,0.00,weatherlink.com 1.10,2013-01-22 01:56:00,
2013-01-21 21:11:00,62.2,59.0,30.05,WNW,300,1.0,1.0,88,0.00,,,0.00,weatherlink.com 1.10,2013-01-22 02:11:00,
2013-01-21 21:26:00,61.8,59.0,30.05,NNW,339,0.0,3.0,89,0.00,,,0.00,weatherlink.com 1.10,2013-01-22 02:26:00,
2013-01-21 21:41:00,61.4,58.0,30.05,NNW,329,1.0,3.0,89,0.00,,,0.00,weatherlink.com 1.10,2013-01-22 02:41:00,
2013-01-21 21:56:00,61.2,58.0,30.06,NNW,327,0.0,2.0,89,0.00,,,0.00,weatherlink.com 1.10,2013-01-22 02:56:00,
2013-01-21 22:11:00,61.0,58.0,30.07,NW,325,0.0,2.0,90,0.00,,,0.00,weatherlink.com 1.10,2013-01-22 03:11:00,
2013-01-21 22:26:00,60.9,58.0,30.07,NW,325,0.0,1.0,90,0.00,,,0.00,weatherlink.com 1.10,2013-01-22 03:26:00,
2013-01-21 22:41:00,60.5,58.0,30.06,NW,324,0.0,2.0,90,0.00,,,0.00,weatherlink.com 1.10,2013-01-22 03:41:00,
2013-01-21 22:56:00,60.2,57.0,30.06,NW,324,0.0,0.0,90,0.00,,,0.00,weatherlink.com 1.10,2013-01-22 03:56:00,
2013-01-21 23:11:00,59.9,57.0,30.06,NW,324,0.0,0.0,91,0.00,,,0.00,weatherlink.com 1.10,2013-01-22 04:11:00,
2013-01-21 23:26:00,59.6,57.0,30.06,NW,321,0.0,2.0,91,0.00,,,0.00,weatherlink.com 1.10,2013-01-22 04:26:00,
2013-01-21 23:41:00,59.5,57.0,30.06,NW,319,0.0,1.0,92,0.00,,,0.00,weatherlink.com 1.10,2013-01-22 04:41:00,
2013-01-21 23:56:00,59.4,57.0,30.07,NW,319,0.0,0.0,92,0.00,,,0.00,weatherlink.com 1.10,2013-01-22 04:56:00,